sensor_id;sensor_type;location;lat;lon;timestamp;P1;durP1;ratioP1;P2;durP2;ratioP2
5937;SDS011;2994;51.220;4.412;2023-02-10T00:01:39;36.17;;;27.57;;
5937;SDS011;2994;51.220;4.412;2023-02-10T00:04:04;39.07;;;26.27;;
5937;SDS011;2994;51.220;4.412;2023-02-10T00:06:30;35.70;;;28.67;;
5937;SDS011;2994;51.220;4.412;2023-02-10T00:08:57;34.27;;;26.90;;
5937;SDS011;2994;51.220;4.412;2023-02-10T00:11:24;38.23;;;26.93;;
5937;SDS011;2994;51.220;4.412;2023-02-10T00:14:13;39.47;;;27.03;;
5937;SDS011;2994;51.220;4.412;2023-02-10T00:16:40;35.40;;;28.30;;
5937;SDS011;2994;51.220;4.412;2023-02-10T00:19:06;39.00;;;26.80;;
5937;SDS011;2994;51.220;4.412;2023-02-10T00:21:32;34.10;;;26.90;;
5937;SDS011;2994;51.220;4.412;2023-02-10T00:23:57;34.30;;;28.27;;
5937;SDS011;2994;51.220;4.412;2023-02-10T00:26:23;36.13;;;28.47;;
5937;SDS011;2994;51.220;4.412;2023-02-10T00:28:48;35.97;;;27.00;;
5937;SDS011;2994;51.220;4.412;2023-02-10T00:31:15;34.43;;;29.97;;
5937;SDS011;2994;51.220;4.412;2023-02-10T00:33:43;39.20;;;30.37;;
5937;SDS011;2994;51.220;4.412;2023-02-10T00:36:10;40.10;;;29.13;;
5937;SDS011;2994;51.220;4.412;2023-02-10T00:38:38;34.80;;;27.60;;
5937;SDS011;2994;51.220;4.412;2023-02-10T00:43:34;46.00;;;29.27;;
5937;SDS011;2994;51.220;4.412;2023-02-10T00:46:01;37.83;;;28.17;;
5937;SDS011;2994;51.220;4.412;2023-02-10T00:48:27;37.77;;;25.30;;
5937;SDS011;2994;51.220;4.412;2023-02-10T00:50:52;42.80;;;27.13;;
5937;SDS011;2994;51.220;4.412;2023-02-10T00:53:18;37.00;;;27.27;;
5937;SDS011;2994;51.220;4.412;2023-02-10T00:55:43;34.60;;;27.57;;
5937;SDS011;2994;51.220;4.412;2023-02-10T00:58:09;37.20;;;27.40;;
5937;SDS011;2994;51.220;4.412;2023-02-10T01:00:34;42.40;;;28.40;;
5937;SDS011;2994;51.220;4.412;2023-02-10T01:03:02;38.30;;;28.43;;
5937;SDS011;2994;51.220;4.412;2023-02-10T01:05:27;37.80;;;28.23;;
5937;SDS011;2994;51.220;4.412;2023-02-10T01:07:53;37.50;;;27.80;;
5937;SDS011;2994;51.220;4.412;2023-02-10T01:10:19;38.03;;;27.97;;
5937;SDS011;2994;51.220;4.412;2023-02-10T01:12:44;36.33;;;28.83;;
5937;SDS011;2994;51.220;4.412;2023-02-10T01:15:10;37.77;;;27.77;;
5937;SDS011;2994;51.220;4.412;2023-02-10T01:17:35;33.97;;;26.33;;
5937;SDS011;2994;51.220;4.412;2023-02-10T01:20:01;33.90;;;27.87;;
5937;SDS011;2994;51.220;4.412;2023-02-10T01:22:27;41.47;;;30.37;;
5937;SDS011;2994;51.220;4.412;2023-02-10T01:24:53;42.00;;;30.60;;
5937;SDS011;2994;51.220;4.412;2023-02-10T01:27:18;40.73;;;28.93;;
5937;SDS011;2994;51.220;4.412;2023-02-10T01:29:44;40.17;;;29.77;;
5937;SDS011;2994;51.220;4.412;2023-02-10T01:32:09;38.43;;;28.73;;
5937;SDS011;2994;51.220;4.412;2023-02-10T01:34:35;45.37;;;31.80;;
5937;SDS011;2994;51.220;4.412;2023-02-10T01:37:01;38.00;;;29.43;;
5937;SDS011;2994;51.220;4.412;2023-02-10T01:39:26;36.57;;;30.20;;
5937;SDS011;2994;51.220;4.412;2023-02-10T01:41:52;36.33;;;29.47;;
5937;SDS011;2994;51.220;4.412;2023-02-10T01:46:47;35.90;;;28.00;;
5937;SDS011;2994;51.220;4.412;2023-02-10T01:49:14;46.37;;;31.00;;
5937;SDS011;2994;51.220;4.412;2023-02-10T01:51:46;40.13;;;31.90;;
5937;SDS011;2994;51.220;4.412;2023-02-10T01:54:17;40.77;;;31.97;;
5937;SDS011;2994;51.220;4.412;2023-02-10T01:56:47;41.70;;;30.63;;
5937;SDS011;2994;51.220;4.412;2023-02-10T01:59:13;44.30;;;33.73;;
5937;SDS011;2994;51.220;4.412;2023-02-10T02:01:39;46.70;;;32.90;;
5937;SDS011;2994;51.220;4.412;2023-02-10T02:04:05;41.70;;;31.90;;
5937;SDS011;2994;51.220;4.412;2023-02-10T02:06:30;47.80;;;33.20;;
5937;SDS011;2994;51.220;4.412;2023-02-10T02:08:57;45.10;;;31.57;;
5937;SDS011;2994;51.220;4.412;2023-02-10T02:20:08;47.50;;;32.93;;
5937;SDS011;2994;51.220;4.412;2023-02-10T02:23:17;38.37;;;27.20;;
5937;SDS011;2994;51.220;4.412;2023-02-10T02:32:21;43.37;;;31.50;;
5937;SDS011;2994;51.220;4.412;2023-02-10T02:37:43;43.90;;;31.10;;
5937;SDS011;2994;51.220;4.412;2023-02-10T02:40:11;39.20;;;30.83;;
5937;SDS011;2994;51.220;4.412;2023-02-10T02:42:37;47.27;;;32.57;;
5937;SDS011;2994;51.220;4.412;2023-02-10T02:47:38;46.93;;;34.30;;
5937;SDS011;2994;51.220;4.412;2023-02-10T02:52:47;47.03;;;32.50;;
5937;SDS011;2994;51.220;4.412;2023-02-10T02:58:13;48.20;;;32.27;;
5937;SDS011;2994;51.220;4.412;2023-02-10T03:01:00;49.90;;;31.83;;
5937;SDS011;2994;51.220;4.412;2023-02-10T03:03:33;53.10;;;35.23;;
5937;SDS011;2994;51.220;4.412;2023-02-10T03:06:01;65.63;;;39.40;;
5937;SDS011;2994;51.220;4.412;2023-02-10T03:08:27;69.83;;;38.67;;
5937;SDS011;2994;51.220;4.412;2023-02-10T03:10:54;58.80;;;36.20;;
5937;SDS011;2994;51.220;4.412;2023-02-10T03:13:20;64.53;;;38.33;;
5937;SDS011;2994;51.220;4.412;2023-02-10T03:15:45;60.70;;;38.50;;
5937;SDS011;2994;51.220;4.412;2023-02-10T03:18:11;63.57;;;39.90;;
5937;SDS011;2994;51.220;4.412;2023-02-10T03:20:36;52.10;;;36.67;;
5937;SDS011;2994;51.220;4.412;2023-02-10T03:23:03;60.87;;;38.17;;
5937;SDS011;2994;51.220;4.412;2023-02-10T03:25:29;65.27;;;37.63;;
5937;SDS011;2994;51.220;4.412;2023-02-10T03:27:54;54.57;;;37.13;;
5937;SDS011;2994;51.220;4.412;2023-02-10T03:30:20;56.13;;;36.03;;
5937;SDS011;2994;51.220;4.412;2023-02-10T03:32:45;55.30;;;36.17;;
5937;SDS011;2994;51.220;4.412;2023-02-10T03:35:11;56.23;;;38.13;;
5937;SDS011;2994;51.220;4.412;2023-02-10T03:37:37;49.93;;;35.00;;
5937;SDS011;2994;51.220;4.412;2023-02-10T03:40:02;41.90;;;31.43;;
5937;SDS011;2994;51.220;4.412;2023-02-10T03:42:28;49.23;;;33.10;;
5937;SDS011;2994;51.220;4.412;2023-02-10T03:44:53;52.90;;;34.73;;
5937;SDS011;2994;51.220;4.412;2023-02-10T03:47:18;43.73;;;32.50;;
5937;SDS011;2994;51.220;4.412;2023-02-10T03:49:44;50.00;;;34.17;;
5937;SDS011;2994;51.220;4.412;2023-02-10T03:52:09;53.23;;;36.53;;
5937;SDS011;2994;51.220;4.412;2023-02-10T03:54:35;50.97;;;34.50;;
5937;SDS011;2994;51.220;4.412;2023-02-10T03:57:00;62.53;;;40.27;;
5937;SDS011;2994;51.220;4.412;2023-02-10T03:59:25;69.00;;;42.10;;
5937;SDS011;2994;51.220;4.412;2023-02-10T04:01:51;66.57;;;44.10;;
5937;SDS011;2994;51.220;4.412;2023-02-10T04:04:16;71.00;;;41.07;;
5937;SDS011;2994;51.220;4.412;2023-02-10T04:06:42;67.70;;;41.63;;
5937;SDS011;2994;51.220;4.412;2023-02-10T04:09:07;67.20;;;42.40;;
5937;SDS011;2994;51.220;4.412;2023-02-10T04:11:33;62.20;;;40.17;;
5937;SDS011;2994;51.220;4.412;2023-02-10T04:13:58;52.73;;;38.10;;
5937;SDS011;2994;51.220;4.412;2023-02-10T04:16:24;64.30;;;41.03;;
5937;SDS011;2994;51.220;4.412;2023-02-10T04:18:52;61.23;;;36.97;;
5937;SDS011;2994;51.220;4.412;2023-02-10T04:21:19;58.60;;;36.80;;
5937;SDS011;2994;51.220;4.412;2023-02-10T04:23:44;62.40;;;37.70;;
5937;SDS011;2994;51.220;4.412;2023-02-10T04:26:10;54.90;;;38.63;;
5937;SDS011;2994;51.220;4.412;2023-02-10T04:28:35;58.63;;;36.23;;
5937;SDS011;2994;51.220;4.412;2023-02-10T04:31:01;54.80;;;36.57;;
5937;SDS011;2994;51.220;4.412;2023-02-10T04:33:27;62.10;;;39.30;;
5937;SDS011;2994;51.220;4.412;2023-02-10T04:35:53;54.60;;;34.60;;
5937;SDS011;2994;51.220;4.412;2023-02-10T04:38:19;56.20;;;35.73;;
5937;SDS011;2994;51.220;4.412;2023-02-10T04:40:45;58.17;;;37.30;;
5937;SDS011;2994;51.220;4.412;2023-02-10T04:43:11;53.80;;;35.00;;
5937;SDS011;2994;51.220;4.412;2023-02-10T04:45:37;48.23;;;34.50;;
5937;SDS011;2994;51.220;4.412;2023-02-10T04:48:02;55.87;;;35.37;;
5937;SDS011;2994;51.220;4.412;2023-02-10T04:50:28;52.70;;;35.50;;
5937;SDS011;2994;51.220;4.412;2023-02-10T04:52:54;54.00;;;36.20;;
5937;SDS011;2994;51.220;4.412;2023-02-10T04:55:19;55.10;;;34.77;;
5937;SDS011;2994;51.220;4.412;2023-02-10T04:57:45;45.30;;;32.20;;
5937;SDS011;2994;51.220;4.412;2023-02-10T05:00:11;53.20;;;34.20;;
5937;SDS011;2994;51.220;4.412;2023-02-10T05:02:37;51.73;;;35.20;;
5937;SDS011;2994;51.220;4.412;2023-02-10T05:05:02;43.00;;;31.37;;
5937;SDS011;2994;51.220;4.412;2023-02-10T05:07:28;54.60;;;33.27;;
5937;SDS011;2994;51.220;4.412;2023-02-10T05:09:54;51.23;;;34.23;;
5937;SDS011;2994;51.220;4.412;2023-02-10T05:12:19;49.90;;;33.30;;
5937;SDS011;2994;51.220;4.412;2023-02-10T05:14:45;54.20;;;33.67;;
5937;SDS011;2994;51.220;4.412;2023-02-10T05:17:10;52.23;;;34.23;;
5937;SDS011;2994;51.220;4.412;2023-02-10T05:19:36;57.27;;;35.67;;
5937;SDS011;2994;51.220;4.412;2023-02-10T05:22:01;58.53;;;34.33;;
5937;SDS011;2994;51.220;4.412;2023-02-10T05:24:27;54.37;;;35.23;;
5937;SDS011;2994;51.220;4.412;2023-02-10T05:26:52;56.97;;;36.97;;
5937;SDS011;2994;51.220;4.412;2023-02-10T05:29:18;61.73;;;36.53;;
5937;SDS011;2994;51.220;4.412;2023-02-10T05:31:43;57.40;;;35.23;;
5937;SDS011;2994;51.220;4.412;2023-02-10T05:34:08;60.80;;;35.30;;
5937;SDS011;2994;51.220;4.412;2023-02-10T05:36:34;65.13;;;39.77;;
5937;SDS011;2994;51.220;4.412;2023-02-10T05:38:59;63.43;;;40.17;;
5937;SDS011;2994;51.220;4.412;2023-02-10T05:41:43;60.00;;;36.37;;
5937;SDS011;2994;51.220;4.412;2023-02-10T05:44:09;64.00;;;37.80;;
5937;SDS011;2994;51.220;4.412;2023-02-10T05:46:34;61.13;;;38.13;;
5937;SDS011;2994;51.220;4.412;2023-02-10T05:49:00;76.13;;;41.00;;
5937;SDS011;2994;51.220;4.412;2023-02-10T05:51:25;69.50;;;41.00;;
5937;SDS011;2994;51.220;4.412;2023-02-10T05:53:51;67.17;;;40.93;;
5937;SDS011;2994;51.220;4.412;2023-02-10T05:56:17;73.53;;;38.63;;
5937;SDS011;2994;51.220;4.412;2023-02-10T05:58:42;63.93;;;39.03;;
5937;SDS011;2994;51.220;4.412;2023-02-10T06:01:08;64.33;;;36.00;;
5937;SDS011;2994;51.220;4.412;2023-02-10T06:03:35;56.97;;;37.07;;
5937;SDS011;2994;51.220;4.412;2023-02-10T06:06:00;62.23;;;37.40;;
5937;SDS011;2994;51.220;4.412;2023-02-10T06:08:26;67.30;;;36.33;;
5937;SDS011;2994;51.220;4.412;2023-02-10T06:10:52;57.73;;;35.63;;
5937;SDS011;2994;51.220;4.412;2023-02-10T06:13:18;56.50;;;36.27;;
5937;SDS011;2994;51.220;4.412;2023-02-10T06:15:43;63.70;;;35.50;;
5937;SDS011;2994;51.220;4.412;2023-02-10T06:18:09;56.43;;;34.20;;
5937;SDS011;2994;51.220;4.412;2023-02-10T06:20:34;57.93;;;36.23;;
5937;SDS011;2994;51.220;4.412;2023-02-10T06:23:00;58.77;;;33.70;;
5937;SDS011;2994;51.220;4.412;2023-02-10T06:25:25;55.67;;;35.60;;
5937;SDS011;2994;51.220;4.412;2023-02-10T06:27:51;55.30;;;32.67;;
5937;SDS011;2994;51.220;4.412;2023-02-10T06:30:16;57.13;;;36.43;;
5937;SDS011;2994;51.220;4.412;2023-02-10T06:32:42;57.30;;;34.60;;
5937;SDS011;2994;51.220;4.412;2023-02-10T06:35:07;58.30;;;37.37;;
5937;SDS011;2994;51.220;4.412;2023-02-10T06:37:32;51.37;;;38.53;;
5937;SDS011;2994;51.220;4.412;2023-02-10T06:39:58;58.37;;;35.60;;
5937;SDS011;2994;51.220;4.412;2023-02-10T06:42:24;51.47;;;36.87;;
5937;SDS011;2994;51.220;4.412;2023-02-10T06:44:49;60.63;;;40.13;;
5937;SDS011;2994;51.220;4.412;2023-02-10T06:47:14;59.43;;;38.90;;
5937;SDS011;2994;51.220;4.412;2023-02-10T06:49:40;53.10;;;36.63;;
5937;SDS011;2994;51.220;4.412;2023-02-10T06:52:05;64.77;;;42.47;;
5937;SDS011;2994;51.220;4.412;2023-02-10T06:54:31;58.00;;;35.10;;
5937;SDS011;2994;51.220;4.412;2023-02-10T06:56:56;67.33;;;38.90;;
5937;SDS011;2994;51.220;4.412;2023-02-10T06:59:22;66.23;;;39.10;;
5937;SDS011;2994;51.220;4.412;2023-02-10T07:01:47;80.50;;;40.70;;
5937;SDS011;2994;51.220;4.412;2023-02-10T07:04:13;61.50;;;38.40;;
5937;SDS011;2994;51.220;4.412;2023-02-10T07:06:38;68.77;;;41.80;;
5937;SDS011;2994;51.220;4.412;2023-02-10T07:09:04;67.20;;;40.77;;
5937;SDS011;2994;51.220;4.412;2023-02-10T07:11:30;73.70;;;39.73;;
5937;SDS011;2994;51.220;4.412;2023-02-10T07:13:57;71.83;;;41.90;;
5937;SDS011;2994;51.220;4.412;2023-02-10T07:16:22;77.10;;;41.20;;
5937;SDS011;2994;51.220;4.412;2023-02-10T07:18:48;65.10;;;38.97;;
5937;SDS011;2994;51.220;4.412;2023-02-10T07:21:13;68.33;;;41.33;;
5937;SDS011;2994;51.220;4.412;2023-02-10T07:23:38;70.60;;;41.30;;
5937;SDS011;2994;51.220;4.412;2023-02-10T07:26:04;84.70;;;43.27;;
5937;SDS011;2994;51.220;4.412;2023-02-10T07:28:30;59.50;;;38.57;;
5937;SDS011;2994;51.220;4.412;2023-02-10T07:30:55;67.63;;;39.67;;
5937;SDS011;2994;51.220;4.412;2023-02-10T07:33:21;62.40;;;37.40;;
5937;SDS011;2994;51.220;4.412;2023-02-10T07:35:46;75.93;;;42.60;;
5937;SDS011;2994;51.220;4.412;2023-02-10T07:38:12;63.27;;;39.73;;
5937;SDS011;2994;51.220;4.412;2023-02-10T07:40:37;63.67;;;39.43;;
5937;SDS011;2994;51.220;4.412;2023-02-10T07:43:03;67.63;;;43.17;;
5937;SDS011;2994;51.220;4.412;2023-02-10T07:45:28;77.57;;;41.50;;
5937;SDS011;2994;51.220;4.412;2023-02-10T07:47:56;68.53;;;39.03;;
5937;SDS011;2994;51.220;4.412;2023-02-10T07:50:22;76.07;;;44.47;;
5937;SDS011;2994;51.220;4.412;2023-02-10T07:52:48;73.23;;;44.10;;
5937;SDS011;2994;51.220;4.412;2023-02-10T07:55:13;65.67;;;39.33;;
5937;SDS011;2994;51.220;4.412;2023-02-10T07:57:39;64.47;;;39.37;;
5937;SDS011;2994;51.220;4.412;2023-02-10T08:00:06;66.67;;;42.40;;
5937;SDS011;2994;51.220;4.412;2023-02-10T08:02:33;78.33;;;46.60;;
5937;SDS011;2994;51.220;4.412;2023-02-10T08:04:58;70.30;;;41.70;;
5937;SDS011;2994;51.220;4.412;2023-02-10T08:07:24;79.57;;;46.03;;
5937;SDS011;2994;51.220;4.412;2023-02-10T08:09:49;69.00;;;43.30;;
5937;SDS011;2994;51.220;4.412;2023-02-10T08:12:15;88.93;;;47.73;;
5937;SDS011;2994;51.220;4.412;2023-02-10T08:14:40;74.80;;;46.77;;
5937;SDS011;2994;51.220;4.412;2023-02-10T08:17:06;60.50;;;39.00;;
5937;SDS011;2994;51.220;4.412;2023-02-10T08:19:31;58.93;;;41.03;;
5937;SDS011;2994;51.220;4.412;2023-02-10T08:21:57;66.57;;;42.20;;
5937;SDS011;2994;51.220;4.412;2023-02-10T08:24:22;66.27;;;41.23;;
5937;SDS011;2994;51.220;4.412;2023-02-10T08:26:48;54.97;;;39.73;;
5937;SDS011;2994;51.220;4.412;2023-02-10T08:29:14;52.97;;;37.33;;
5937;SDS011;2994;51.220;4.412;2023-02-10T08:31:39;53.87;;;36.23;;
5937;SDS011;2994;51.220;4.412;2023-02-10T08:34:05;59.37;;;39.40;;
5937;SDS011;2994;51.220;4.412;2023-02-10T08:36:36;53.60;;;36.07;;
5937;SDS011;2994;51.220;4.412;2023-02-10T08:39:02;56.63;;;37.40;;
5937;SDS011;2994;51.220;4.412;2023-02-10T08:41:27;61.03;;;37.60;;
5937;SDS011;2994;51.220;4.412;2023-02-10T08:43:56;51.27;;;36.33;;
5937;SDS011;2994;51.220;4.412;2023-02-10T08:46:22;52.70;;;36.70;;
5937;SDS011;2994;51.220;4.412;2023-02-10T08:48:47;56.10;;;37.07;;
5937;SDS011;2994;51.220;4.412;2023-02-10T08:51:14;47.93;;;34.17;;
5937;SDS011;2994;51.220;4.412;2023-02-10T08:53:40;48.90;;;34.60;;
5937;SDS011;2994;51.220;4.412;2023-02-10T08:56:08;56.33;;;37.33;;
5937;SDS011;2994;51.220;4.412;2023-02-10T08:58:36;49.30;;;35.37;;
5937;SDS011;2994;51.220;4.412;2023-02-10T09:01:15;59.30;;;37.53;;
5937;SDS011;2994;51.220;4.412;2023-02-10T09:03:43;53.50;;;36.97;;
5937;SDS011;2994;51.220;4.412;2023-02-10T09:06:12;50.70;;;34.50;;
5937;SDS011;2994;51.220;4.412;2023-02-10T09:08:40;53.03;;;35.83;;
5937;SDS011;2994;51.220;4.412;2023-02-10T09:11:07;51.17;;;34.80;;
5937;SDS011;2994;51.220;4.412;2023-02-10T09:13:33;55.50;;;35.70;;
5937;SDS011;2994;51.220;4.412;2023-02-10T09:15:58;56.60;;;37.17;;
5937;SDS011;2994;51.220;4.412;2023-02-10T09:18:23;58.73;;;38.10;;
5937;SDS011;2994;51.220;4.412;2023-02-10T09:20:49;57.90;;;37.77;;
5937;SDS011;2994;51.220;4.412;2023-02-10T09:23:14;56.87;;;37.60;;
5937;SDS011;2994;51.220;4.412;2023-02-10T09:25:40;48.77;;;35.20;;
5937;SDS011;2994;51.220;4.412;2023-02-10T09:28:05;53.10;;;35.43;;
5937;SDS011;2994;51.220;4.412;2023-02-10T09:30:31;51.50;;;38.57;;
5937;SDS011;2994;51.220;4.412;2023-02-10T09:32:56;50.80;;;34.80;;
5937;SDS011;2994;51.220;4.412;2023-02-10T09:35:21;48.13;;;34.07;;
5937;SDS011;2994;51.220;4.412;2023-02-10T09:37:47;59.57;;;36.17;;
5937;SDS011;2994;51.220;4.412;2023-02-10T09:40:16;50.43;;;35.50;;
5937;SDS011;2994;51.220;4.412;2023-02-10T09:45:51;58.50;;;36.10;;
5937;SDS011;2994;51.220;4.412;2023-02-10T09:51:35;52.80;;;37.20;;
5937;SDS011;2994;51.220;4.412;2023-02-10T09:54:08;54.40;;;36.40;;
5937;SDS011;2994;51.220;4.412;2023-02-10T09:56:35;50.47;;;36.57;;
5937;SDS011;2994;51.220;4.412;2023-02-10T09:59:02;53.43;;;38.20;;
5937;SDS011;2994;51.220;4.412;2023-02-10T10:04:17;51.00;;;36.57;;
5937;SDS011;2994;51.220;4.412;2023-02-10T10:06:46;56.73;;;38.37;;
5937;SDS011;2994;51.220;4.412;2023-02-10T10:12:02;53.83;;;37.73;;
5937;SDS011;2994;51.220;4.412;2023-02-10T10:14:37;60.13;;;38.10;;
5937;SDS011;2994;51.220;4.412;2023-02-10T10:17:26;52.20;;;37.47;;
5937;SDS011;2994;51.220;4.412;2023-02-10T10:30:54;62.23;;;42.23;;
5937;SDS011;2994;51.220;4.412;2023-02-10T10:33:30;67.33;;;41.50;;
5937;SDS011;2994;51.220;4.412;2023-02-10T10:36:00;63.30;;;43.47;;
5937;SDS011;2994;51.220;4.412;2023-02-10T10:38:29;70.30;;;44.13;;
5937;SDS011;2994;51.220;4.412;2023-02-10T10:40:58;66.30;;;44.60;;
5937;SDS011;2994;51.220;4.412;2023-02-10T10:43:32;66.60;;;42.13;;
5937;SDS011;2994;51.220;4.412;2023-02-10T10:46:13;68.87;;;43.83;;
5937;SDS011;2994;51.220;4.412;2023-02-10T10:48:44;66.00;;;44.50;;
5937;SDS011;2994;51.220;4.412;2023-02-10T10:51:09;65.80;;;43.47;;
5937;SDS011;2994;51.220;4.412;2023-02-10T10:56:06;77.97;;;46.17;;
5937;SDS011;2994;51.220;4.412;2023-02-10T10:58:51;70.23;;;46.80;;
5937;SDS011;2994;51.220;4.412;2023-02-10T11:01:17;68.47;;;44.00;;
5937;SDS011;2994;51.220;4.412;2023-02-10T11:04:02;62.80;;;43.70;;
5937;SDS011;2994;51.220;4.412;2023-02-10T11:06:31;54.10;;;38.53;;
5937;SDS011;2994;51.220;4.412;2023-02-10T11:09:01;69.43;;;42.70;;
5937;SDS011;2994;51.220;4.412;2023-02-10T11:11:35;52.70;;;39.17;;
5937;SDS011;2994;51.220;4.412;2023-02-10T11:14:10;59.50;;;39.67;;
5937;SDS011;2994;51.220;4.412;2023-02-10T11:16:41;61.93;;;37.93;;
5937;SDS011;2994;51.220;4.412;2023-02-10T11:19:16;54.83;;;38.27;;
5937;SDS011;2994;51.220;4.412;2023-02-10T11:21:46;55.92;;;39.35;;
5937;SDS011;2994;51.220;4.412;2023-02-10T11:24:17;53.90;;;40.23;;
5937;SDS011;2994;51.220;4.412;2023-02-10T11:27:04;55.00;;;38.73;;
5937;SDS011;2994;51.220;4.412;2023-02-10T11:29:40;59.37;;;37.67;;
5937;SDS011;2994;51.220;4.412;2023-02-10T11:32:23;54.23;;;39.53;;
5937;SDS011;2994;51.220;4.412;2023-02-10T11:34:55;50.00;;;35.43;;
5937;SDS011;2994;51.220;4.412;2023-02-10T11:37:27;51.77;;;35.97;;
5937;SDS011;2994;51.220;4.412;2023-02-10T11:39:56;60.33;;;41.53;;
5937;SDS011;2994;51.220;4.412;2023-02-10T11:42:28;61.43;;;38.97;;
5937;SDS011;2994;51.220;4.412;2023-02-10T11:47:27;63.63;;;36.03;;
5937;SDS011;2994;51.220;4.412;2023-02-10T11:49:54;52.77;;;36.37;;
5937;SDS011;2994;51.220;4.412;2023-02-10T11:52:21;55.43;;;36.27;;
5937;SDS011;2994;51.220;4.412;2023-02-10T11:54:49;50.50;;;34.73;;
5937;SDS011;2994;51.220;4.412;2023-02-10T12:18:52;54.53;;;33.87;;
5937;SDS011;2994;51.220;4.412;2023-02-10T12:26:49;43.73;;;28.97;;
5937;SDS011;2994;51.220;4.412;2023-02-10T12:29:25;50.47;;;31.43;;
5937;SDS011;2994;51.220;4.412;2023-02-10T12:32:12;46.20;;;29.70;;
5937;SDS011;2994;51.220;4.412;2023-02-10T12:37:23;44.30;;;30.50;;
5937;SDS011;2994;51.220;4.412;2023-02-10T12:57:12;48.53;;;28.73;;
5937;SDS011;2994;51.220;4.412;2023-02-10T13:02:42;40.73;;;26.20;;
5937;SDS011;2994;51.220;4.412;2023-02-10T13:05:12;64.40;;;32.27;;
5937;SDS011;2994;51.220;4.412;2023-02-10T13:07:47;52.10;;;28.80;;
5937;SDS011;2994;51.220;4.412;2023-02-10T13:10:30;57.83;;;30.30;;
5937;SDS011;2994;51.220;4.412;2023-02-10T13:13:30;47.53;;;28.90;;
5937;SDS011;2994;51.220;4.412;2023-02-10T13:16:12;43.50;;;25.90;;
5937;SDS011;2994;51.220;4.412;2023-02-10T13:21:49;38.87;;;25.63;;
5937;SDS011;2994;51.220;4.412;2023-02-10T13:24:30;48.33;;;27.27;;
5937;SDS011;2994;51.220;4.412;2023-02-10T13:35:58;43.13;;;24.70;;
5937;SDS011;2994;51.220;4.412;2023-02-10T13:38:24;38.80;;;23.70;;
5937;SDS011;2994;51.220;4.412;2023-02-10T13:40:57;41.00;;;23.90;;
5937;SDS011;2994;51.220;4.412;2023-02-10T13:43:43;33.67;;;23.27;;
5937;SDS011;2994;51.220;4.412;2023-02-10T13:46:28;33.27;;;21.93;;
5937;SDS011;2994;51.220;4.412;2023-02-10T13:48:56;41.83;;;28.77;;
5937;SDS011;2994;51.220;4.412;2023-02-10T13:51:30;31.77;;;23.93;;
5937;SDS011;2994;51.220;4.412;2023-02-10T13:53:58;37.97;;;24.40;;
5937;SDS011;2994;51.220;4.412;2023-02-10T13:56:26;37.30;;;25.97;;
5937;SDS011;2994;51.220;4.412;2023-02-10T14:06:52;39.90;;;23.90;;
5937;SDS011;2994;51.220;4.412;2023-02-10T14:09:39;36.53;;;24.23;;
5937;SDS011;2994;51.220;4.412;2023-02-10T14:12:05;38.80;;;23.87;;
5937;SDS011;2994;51.220;4.412;2023-02-10T14:14:50;34.03;;;22.83;;
5937;SDS011;2994;51.220;4.412;2023-02-10T14:17:20;34.60;;;20.73;;
5937;SDS011;2994;51.220;4.412;2023-02-10T14:19:55;28.07;;;21.00;;
5937;SDS011;2994;51.220;4.412;2023-02-10T14:22:26;36.03;;;21.47;;
5937;SDS011;2994;51.220;4.412;2023-02-10T14:25:03;30.90;;;21.13;;
5937;SDS011;2994;51.220;4.412;2023-02-10T14:27:51;33.13;;;20.90;;
5937;SDS011;2994;51.220;4.412;2023-02-10T14:30:21;32.00;;;20.80;;
5937;SDS011;2994;51.220;4.412;2023-02-10T14:32:51;32.13;;;21.80;;
5937;SDS011;2994;51.220;4.412;2023-02-10T14:35:18;36.80;;;21.57;;
5937;SDS011;2994;51.220;4.412;2023-02-10T14:37:49;36.53;;;24.63;;
5937;SDS011;2994;51.220;4.412;2023-02-10T14:48:55;40.13;;;22.87;;
5937;SDS011;2994;51.220;4.412;2023-02-10T14:51:44;41.37;;;24.13;;
5937;SDS011;2994;51.220;4.412;2023-02-10T14:54:21;35.27;;;22.80;;
5937;SDS011;2994;51.220;4.412;2023-02-10T14:56:53;36.03;;;23.03;;
5937;SDS011;2994;51.220;4.412;2023-02-10T14:59:22;50.47;;;26.23;;
5937;SDS011;2994;51.220;4.412;2023-02-10T15:01:57;43.40;;;23.63;;
5937;SDS011;2994;51.220;4.412;2023-02-10T15:04:24;40.50;;;23.97;;
5937;SDS011;2994;51.220;4.412;2023-02-10T15:06:55;43.10;;;26.83;;
5937;SDS011;2994;51.220;4.412;2023-02-10T15:09:29;41.73;;;26.10;;
5937;SDS011;2994;51.220;4.412;2023-02-10T15:12:02;46.43;;;26.87;;
5937;SDS011;2994;51.220;4.412;2023-02-10T15:17:20;48.40;;;25.73;;
5937;SDS011;2994;51.220;4.412;2023-02-10T15:20:31;45.67;;;28.30;;
5937;SDS011;2994;51.220;4.412;2023-02-10T15:22:44;48.67;;;28.23;;
5937;SDS011;2994;51.220;4.412;2023-02-10T15:25:30;51.23;;;28.63;;
5937;SDS011;2994;51.220;4.412;2023-02-10T15:33:30;46.93;;;29.57;;
5937;SDS011;2994;51.220;4.412;2023-02-10T15:39:17;54.97;;;31.00;;
5937;SDS011;2994;51.220;4.412;2023-02-10T15:41:45;50.13;;;25.97;;
5937;SDS011;2994;51.220;4.412;2023-02-10T15:49:51;44.33;;;26.77;;
5937;SDS011;2994;51.220;4.412;2023-02-10T15:52:28;47.60;;;26.60;;
5937;SDS011;2994;51.220;4.412;2023-02-10T15:54:57;48.93;;;31.20;;
5937;SDS011;2994;51.220;4.412;2023-02-10T15:57:25;45.20;;;25.90;;
5937;SDS011;2994;51.220;4.412;2023-02-10T15:59:51;41.70;;;25.47;;
5937;SDS011;2994;51.220;4.412;2023-02-10T16:02:18;52.30;;;25.90;;
5937;SDS011;2994;51.220;4.412;2023-02-10T16:04:44;40.53;;;25.83;;
5937;SDS011;2994;51.220;4.412;2023-02-10T16:07:17;43.17;;;26.63;;
5937;SDS011;2994;51.220;4.412;2023-02-10T16:09:45;36.03;;;24.43;;
5937;SDS011;2994;51.220;4.412;2023-02-10T16:12:11;44.57;;;26.90;;
5937;SDS011;2994;51.220;4.412;2023-02-10T16:14:36;39.13;;;27.03;;
5937;SDS011;2994;51.220;4.412;2023-02-10T16:17:02;37.97;;;23.47;;
5937;SDS011;2994;51.220;4.412;2023-02-10T16:19:29;39.73;;;26.20;;
5937;SDS011;2994;51.220;4.412;2023-02-10T16:21:55;46.33;;;25.83;;
5937;SDS011;2994;51.220;4.412;2023-02-10T16:24:23;38.93;;;25.87;;
5937;SDS011;2994;51.220;4.412;2023-02-10T16:26:50;38.43;;;25.07;;
5937;SDS011;2994;51.220;4.412;2023-02-10T16:29:17;38.37;;;27.40;;
5937;SDS011;2994;51.220;4.412;2023-02-10T16:31:44;44.17;;;24.73;;
5937;SDS011;2994;51.220;4.412;2023-02-10T16:34:10;50.43;;;26.20;;
5937;SDS011;2994;51.220;4.412;2023-02-10T16:36:36;38.70;;;25.27;;
5937;SDS011;2994;51.220;4.412;2023-02-10T16:39:03;35.70;;;21.43;;
5937;SDS011;2994;51.220;4.412;2023-02-10T16:41:29;42.37;;;25.23;;
5937;SDS011;2994;51.220;4.412;2023-02-10T16:43:55;32.80;;;24.03;;
5937;SDS011;2994;51.220;4.412;2023-02-10T16:46:20;36.30;;;23.50;;
5937;SDS011;2994;51.220;4.412;2023-02-10T16:48:46;42.50;;;24.27;;
5937;SDS011;2994;51.220;4.412;2023-02-10T16:51:12;37.67;;;24.93;;
5937;SDS011;2994;51.220;4.412;2023-02-10T16:53:38;44.30;;;25.87;;
5937;SDS011;2994;51.220;4.412;2023-02-10T16:56:03;39.33;;;23.90;;
5937;SDS011;2994;51.220;4.412;2023-02-10T16:58:29;42.37;;;25.43;;
5937;SDS011;2994;51.220;4.412;2023-02-10T17:00:55;42.80;;;26.47;;
5937;SDS011;2994;51.220;4.412;2023-02-10T17:03:21;35.17;;;23.70;;
5937;SDS011;2994;51.220;4.412;2023-02-10T17:05:47;35.90;;;24.40;;
5937;SDS011;2994;51.220;4.412;2023-02-10T17:08:13;38.97;;;25.27;;
5937;SDS011;2994;51.220;4.412;2023-02-10T17:10:40;43.13;;;25.30;;
5937;SDS011;2994;51.220;4.412;2023-02-10T17:13:05;36.07;;;24.30;;
5937;SDS011;2994;51.220;4.412;2023-02-10T17:15:33;40.30;;;27.70;;
5937;SDS011;2994;51.220;4.412;2023-02-10T17:17:59;37.23;;;25.07;;
5937;SDS011;2994;51.220;4.412;2023-02-10T17:20:25;40.80;;;25.70;;
5937;SDS011;2994;51.220;4.412;2023-02-10T17:22:52;42.03;;;24.93;;
5937;SDS011;2994;51.220;4.412;2023-02-10T17:25:19;40.17;;;27.23;;
5937;SDS011;2994;51.220;4.412;2023-02-10T17:27:45;41.07;;;25.93;;
5937;SDS011;2994;51.220;4.412;2023-02-10T17:30:11;40.10;;;27.37;;